^^
Datos históricos de la estación: Murcia-Puente Tocinos
Diario Informe para Enero 19, 2019 Unidades:  Ingés    Métrico   Ambas
Diario Semanal Mensual Anual
  Máxima: Mínima: Promedio:
Temperatura: 82.8 °F 68.2 °F 75 °F
Punto de rocio: 69.3 °F 61.7 °F 65.8 °F
Humedad: 90% 50.8% 74%
Velocidad viento: 9.7mph 0mph 4mph
Racha viento: 17.5mph - -
Viento- - ESE
Presión: 30 in 29.9 in -
Precipitación: 0 in    
 
 
Tabla de datos para Enero 19, 2019
Hora Temperatura Punto de rocio Presión Viento Velocidad viento Racha viento Humedad Intensidad lluvia(por hora) Nubes
00:04 72.9 °F 68.4 °F 30 in NNE 1.4 mph 4 mph 86% 0 in
00:09 72.9 °F 68.4 °F 30 in NNE 1.4 mph 3 mph 86% 0 in
00:14 72.7 °F 68.2 °F 30 in NNE 1.4 mph 3 mph 86% 0 in
00:19 72.7 °F 68.2 °F 30 in NNE 1.4 mph 2.9 mph 86% 0 in
00:24 72.5 °F 68 °F 30 in NNE 1.4 mph 3.5 mph 85.6% 0 in
00:29 72.3 °F 67.5 °F 30 in Este 1.5 mph 5.8 mph 84.4% 0 in
00:34 72.1 °F 66.4 °F 30 in SE 2 mph 6 mph 82.3% 0 in
00:36 72.1 °F 66.2 °F 30 in SE 2 mph 4 mph 82% 0 in
00:44 72 °F 66.2 °F 30 in SE 1.4 mph 2.3 mph 82% 0 in
00:49 72 °F 66.2 °F 30 in SE 1.1 mph 2 mph 82% 0 in
00:54 72 °F 66.2 °F 30 in Calm   2.4 mph 82% 0 in
00:59 72 °F 66.2 °F 30 in Calm   2.4 mph 82% 0 in
01:04 72 °F 66.4 °F 30 in Calm   1.4 mph 82.5% 0 in
01:09 72 °F 66.6 °F 30 in Calm   1.2 mph 83.3% 0 in
01:12 72 °F 66.9 °F 30 in Calm     84% 0 in
01:19 71.8 °F 66.7 °F 30 in Calm     84% 0 in
01:23 71.8 °F 66.9 °F 30 in Calm     84.9% 0 in
01:29 71.8 °F 66.9 °F 30 in Calm     85% 0 in
01:34 71.8 °F 66.9 °F 30 in Calm   4.7 mph 84.9% 0 in
01:39 71.6 °F 66.4 °F 30 in SE 0.3 mph 5.2 mph 84% 0 in
01:44 71.4 °F 66.4 °F 30 in ESE 1.8 mph 5 mph 84% 0 in
01:49 71.2 °F 66.2 °F 30 in SE 1.9 mph 4.6 mph 84% 0 in
01:54 71.2 °F 66.4 °F 30 in SE 2.4 mph 5 mph 84.9% 0 in
01:59 71.1 °F 66.4 °F 30 in SE 2.2 mph 5 mph 85% 0 in
02:04 71.1 °F 66 °F 30 in SE 1.8 mph 3.5 mph 84.3% 0 in
02:09 71.1 °F 66 °F 30 in SE 1.8 mph 3.5 mph 84% 0 in
02:14 70.9 °F 65.5 °F 30 in SE 1.8 mph 4.7 mph 83.1% 0 in
02:19 70.5 °F 64.9 °F 30 in SE 2 mph 5.2 mph 82.2% 0 in
02:24 70.3 °F 64.6 °F 30 in SE 2.9 mph 5 mph 82% 0 in
02:29 70.3 °F 64.6 °F 30 in SE 2.8 mph 5 mph 82% 0 in
02:34 70.3 °F 64.4 °F 30 in SE 2.4 mph 5.9 mph 81.6% 0 in
02:39 70.2 °F 64 °F 30 in SE 2.5 mph 6 mph 81% 0 in
02:44 70.2 °F 64 °F 30 in SE 3.1 mph 6 mph 81% 0 in
02:49 70.2 °F 64.4 °F 30 in SE 3 mph 5 mph 82% 0 in
02:54 70.2 °F 64.4 °F 30 in SE 2.9 mph 5 mph 82% 0 in
02:59 70.2 °F 64.2 °F 30 in SE 2.8 mph 4.6 mph 81.2% 0 in
03:04 70.2 °F 64 °F 30 in ESE 2.4 mph 5 mph 81% 0 in
03:09 70 °F 63.9 °F 30 in SE 2.5 mph 5 mph 81% 0 in
03:14 69.8 °F 64 °F 30 in SE 2.9 mph 5 mph 81.8% 0 in
03:19 70 °F 64.2 °F 30 in SE 2.6 mph 4 mph 82% 0 in
03:24 70 °F 64.2 °F 30 in ESE 1.4 mph 5 mph 82% 0 in
03:29 69.8 °F 64 °F 30 in SE 1.5 mph 5 mph 82% 0 in
03:34 69.6 °F 64 °F 30 in SE 2 mph 5 mph 82% 0 in
03:39 69.6 °F 64 °F 30 in SE 1.7 mph   82.6% 0 in
03:44 69.8 °F 64.4 °F 30 in Calm     83% 0 in
03:49 69.8 °F 64.4 °F 30 in Calm   2 mph 83% 0 in
03:54 70 °F 64.8 °F 30 in Calm   2.9 mph 83.5% 0 in
03:59 70 °F 64.6 °F 30 in SE 0.3 mph 3 mph 83% 0 in
04:04 70 °F 64.6 °F 30 in SE 1.4 mph 3.1 mph 83% 0 in
04:09 70.2 °F 64.8 °F 30 in SE 1.5 mph 3.5 mph 83% 0 in
04:14 70.2 °F 64.8 °F 30 in SE 1.8 mph 3 mph 83% 0 in
04:19 70.2 °F 64.9 °F 30 in SE 1.5 mph 2.4 mph 83.4% 0 in
04:24 70 °F 64.9 °F 30 in Calm   3.6 mph 84% 0 in
04:29 70 °F 64.9 °F 30 in SE 0.2 mph 4 mph 84% 0 in
04:34 70 °F 64.9 °F 30 in SE 1.4 mph 4 mph 84% 0 in
04:39 69.8 °F 64.8 °F 29.9 in SE 1.5 mph 3.6 mph 84% 0 in
04:44 69.8 °F 64.8 °F 29.9 in SSE 1.8 mph 4.7 mph 84.4% 0 in
04:49 69.6 °F 65.1 °F 29.9 in Sur 2 mph 5 mph 85.6% 0 in
04:54 69.6 °F 65.5 °F 29.9 in Sur 2.9 mph 5 mph 86.6% 0 in
04:59 69.6 °F 65.7 °F 29.9 in Sur 2.7 mph 4 mph 87% 0 in
05:04 69.6 °F 65.7 °F 29.9 in Sur 2 mph 3.5 mph 87% 0 in
05:09 69.6 °F 65.7 °F 29.9 in Sur 1.9 mph 3 mph 87% 0 in
05:14 69.6 °F 65.5 °F 29.9 in Sur 1.4 mph 2.4 mph 87% 0 in
05:19 69.4 °F 65.5 °F 29.9 in Sur 1.4 mph 2.4 mph 87% 0 in
05:24 69.3 °F 65.3 °F 29.9 in Sur 1.4 mph 2.3 mph 87% 0 in
05:29 69.3 °F 65.1 °F 29.9 in Sur 1.1 mph 2 mph 87% 0 in
05:34 69.1 °F 64.9 °F 30 in Calm     87% 0 in
05:39 68.9 °F 64.9 °F 30 in Calm     87% 0 in
05:44 68.7 °F 64.8 °F 30 in Calm     87% 0 in
05:49 68.7 °F 64.9 °F 30 in Calm   1.4 mph 87.9% 0 in
05:54 68.7 °F 64.9 °F 29.9 in Calm   3.6 mph 88% 0 in
05:59 68.7 °F 64.9 °F 29.9 in Sur 0.4 mph 4 mph 88% 0 in
06:04 68.5 °F 64.9 °F 29.9 in SSE 1.8 mph 4.6 mph 88% 0 in
06:09 68.5 °F 65.1 °F 29.9 in SSE 2 mph 5 mph 88.6% 0 in
06:14 68.5 °F 65.1 °F 29.9 in SSE 2.9 mph 5 mph 89% 0 in
06:19 68.5 °F 65.3 °F 29.9 in SSE 2.8 mph 4.6 mph 89.1% 0 in
06:24 68.5 °F 65.5 °F 29.9 in SSE 2.4 mph 5 mph 90% 0 in
06:29 68.5 °F 65.5 °F 29.9 in SSE 2.5 mph 5.4 mph 90% 0 in
06:34 68.5 °F 65.5 °F 29.9 in SSE 3.1 mph 6 mph 90% 0 in
06:39 68.4 °F 65.3 °F 29.9 in Sur 3.2 mph 6.9 mph 90% 0 in
06:44 68.4 °F 65.3 °F 29.9 in Sur 4 mph 7 mph 90% 0 in
06:49 68.2 °F 65.1 °F 29.9 in Sur 4 mph 6 mph 90% 0 in
06:54 68.2 °F 65.1 °F 29.9 in Sur 4 mph 6.2 mph 90% 0 in
06:59 68.2 °F 65.1 °F 29.9 in SSO 4.1 mph 6.9 mph 90% 0 in
07:04 68.4 °F 65.1 °F 29.9 in SSO 4.3 mph 7.4 mph 90% 0 in
07:09 68.4 °F 65.1 °F 29.9 in SSO 4.3 mph 7 mph 89.4% 0 in
07:14 68.4 °F 64.9 °F 29.9 in SSO 4.3 mph 6.2 mph 89% 0 in
07:19 68.4 °F 64.8 °F 29.9 in SO 4.2 mph 6.4 mph 88.5% 0 in
07:24 68.4 °F 64.8 °F 29.9 in SSO 4 mph 8.1 mph 88% 0 in
07:29 68.4 °F 64.4 °F 29.9 in SO 4 mph 8 mph 87.1% 0 in
07:34 68.5 °F 64.2 °F 29.9 in OSO 4.3 mph 9.2 mph 86.3% 0 in
07:39 68.5 °F 63.9 °F 29.9 in SO 4.5 mph 10 mph 85.4% 0 in
07:44 68.5 °F 63.9 °F 29.9 in SO 5.2 mph 10.4 mph 85% 0 in
07:49 68.5 °F 63.9 °F 30 in OSO 5.2 mph 10 mph 85% 0 in
07:54 68.5 °F 63.9 °F 30 in SO 5.4 mph 8 mph 85% 0 in
07:59 68.5 °F 63.9 °F 30 in SO 4.9 mph 7 mph 85% 0 in
08:04 68.5 °F 63.9 °F 30 in SO 3.1 mph 5.9 mph 85% 0 in
08:09 68.5 °F 63.9 °F 30 in SO 3.2 mph 6 mph 85% 0 in
08:14 68.5 °F 63.9 °F 30 in OSO 3.6 mph 6 mph 85.4% 0 in
08:19 68.5 °F 64.2 °F 30 in OSO 3.5 mph 5.4 mph 86% 0 in
08:24 68.7 °F 64.4 °F 30 in OSO 2.9 mph 6.4 mph 86% 0 in
08:29 68.7 °F 64.4 °F 30 in Oeste 3 mph 7 mph 86% 0 in
08:34 68.7 °F 64.4 °F 30 in Oeste 3.6 mph 7 mph 86% 0 in
08:39 68.7 °F 64.4 °F 30 in ONO 3.3 mph 4 mph 86% 0 in
08:44 68.7 °F 64.4 °F 30 in ONO 1.8 mph 3 mph 86% 0 in
08:49 68.9 °F 64.6 °F 30 in ONO 1.7 mph 3.1 mph 86% 0 in
08:54 69.3 °F 64.8 °F 30 in ONO 1.4 mph 5.2 mph 86% 0 in
08:59 69.3 °F 64.9 °F 30 in Oeste 1.7 mph 5 mph 86% 0 in
09:04 69.4 °F 65.1 °F 30 in Oeste 2.9 mph 5 mph 86% 0 in
09:09 69.6 °F 65.3 °F 30 in Oeste 2.6 mph 3 mph 86% 0 in
09:14 70 °F 65.7 °F 30 in SO 1.4 mph 3.6 mph 85.9% 0 in
09:19 70.5 °F 65.5 °F 30 in SE 1.5 mph 4.6 mph 84.4% 0 in
09:24 70.9 °F 65.7 °F 30 in SE 1.8 mph 5 mph 83.6% 0 in
09:29 71.1 °F 65.7 °F 30 in SE 1.8 mph 4 mph 83.2% 0 in
09:34 71.6 °F 66 °F 30 in SE 1.8 mph 2.9 mph 82.9% 0 in
09:39 72 °F 66 °F 30 in SE 1.7 mph 3 mph 81.6% 0 in
09:44 72.1 °F 66.2 °F 30 in SE 1.4 mph 3 mph 81.6% 0 in
09:49 72.7 °F 66.4 °F 30 in SE 1.2 mph 3 mph 80.7% 0 in
09:54 73.4 °F 66.4 °F 30 in Calm   4 mph 79% 0 in
09:59 73.6 °F 66.2 °F 30 in ONO 0.3 mph 5 mph 77.6% 0 in
10:04 73.6 °F 66.4 °F 30 in ONO 1.4 mph 5 mph 78% 0 in
10:09 73.6 °F 66.4 °F 30 in ONO 1.5 mph 4.6 mph 78% 0 in
10:14 73.6 °F 66.4 °F 30 in OSO 1.8 mph 5 mph 78.1% 0 in
10:19 73.8 °F 66.6 °F 30 in SSO 1.9 mph 5 mph 78% 0 in
10:24 73.9 °F 66.6 °F 30 in SSE 2 mph 5 mph 78% 0 in
10:29 74.5 °F 66.9 °F 30 in Sur 2 mph 4 mph 77.6% 0 in
10:34 74.8 °F 66.9 °F 30 in Oeste 2 mph 4 mph 76.8% 0 in
10:39 75.4 °F 67.1 °F 30 in NO 2 mph 4.6 mph 75.5% 0 in
10:44 75.9 °F 67.1 °F 30 in NNE 1.8 mph 5 mph 74.3% 0 in
10:49 76.5 °F 67.3 °F 30 in NO 1.8 mph 4.6 mph 73.3% 0 in
10:54 76.5 °F 66.7 °F 30 in ONO 1.8 mph 5 mph 72% 0 in
10:59 76.5 °F 66.7 °F 30 in Oeste 1.9 mph 5 mph 72% 0 in
11:04 76.5 °F 66.4 °F 30 in ONO 2.4 mph 5 mph 71% 0 in
11:09 76.6 °F 66 °F 30 in Oeste 2.3 mph 5.9 mph 69.7% 0 in
11:14 76.8 °F 64.9 °F 30 in Oeste 2 mph 6 mph 66.8% 0 in
11:19 76.8 °F 64.2 °F 30 in Oeste 2 mph 5 mph 64.8% 0 in
11:24 77.4 °F 65.5 °F 30 in ONO 2 mph 5 mph 66.8% 0 in
11:29 78.1 °F 66.4 °F 30 in NE 2 mph 5.2 mph 67.1% 0 in
11:34 78.6 °F 66 °F 30 in Este 1.8 mph 5 mph 65% 0 in
11:39 78.8 °F 65.3 °F 30 in NE 1.9 mph 5 mph 63.5% 0 in
11:44 79 °F 65.3 °F 30 in NE 2.4 mph 6.9 mph 63% 0 in
11:49 79.2 °F 65.3 °F 30 in NE 2.5 mph 8.1 mph 63% 0 in
11:54 78.8 °F 64.9 °F 30 in North 3.1 mph 8 mph 62.7% 0 in
11:59 78.8 °F 64.6 °F 30 in North 3.1 mph 9.7 mph 61.7% 0 in
12:04 78.6 °F 64 °F 30 in NE 3.1 mph 10 mph 60.7% 0 in
12:09 78.6 °F 64 °F 30 in NNE 3.3 mph 8 mph 60.8% 0 in
12:14 79 °F 64.2 °F 30 in NE 4.3 mph 10.7 mph 60.8% 0 in
12:19 79 °F 64.4 °F 30 in ENE 4.5 mph 11 mph 61% 0 in
12:24 79 °F 64.6 °F 30 in NE 5.4 mph 10.7 mph 61.2% 0 in
12:29 79.2 °F 64.8 °F 30 in NE 5.3 mph 11 mph 61.8% 0 in
12:34 79.2 °F 64.9 °F 30 in NE 4.7 mph 11.8 mph 61.8% 0 in
12:39 79.3 °F 65.3 °F 30 in NE 4.9 mph 12 mph 62.1% 0 in
12:44 79.9 °F 65.7 °F 30 in NNE 5.9 mph 11.5 mph 62.1% 0 in
12:49 79.9 °F 65.8 °F 30 in NE 6 mph 12 mph 62.1% 0 in
12:54 79.9 °F 65.7 °F 30 in NNE 6.4 mph 12 mph 62.1% 0 in
12:59 80.1 °F 66 °F 30 in NE 6.3 mph 11 mph 62.5% 0 in
13:04 80.2 °F 66 °F 30 in NE 5.9 mph 11.5 mph 62% 0 in
13:09 80.2 °F 65.8 °F 30 in ENE 5.9 mph 12 mph 61.9% 0 in
13:14 80.2 °F 66.2 °F 30 in NNE 5.9 mph 14 mph 62.2% 0 in
13:19 80.2 °F 66.4 °F 30 in NE 6.3 mph 15 mph 62.7% 0 in
13:24 80.4 °F 66.7 °F 30 in NE 8.1 mph 15 mph 63% 0 in
13:29 80.6 °F 66.7 °F 30 in NE 8 mph 13.8 mph 63% 0 in
13:34 80.8 °F 66.6 °F 30 in NE 7.4 mph 14 mph 62.3% 0 in
13:39 81 °F 66.6 °F 30 in NNE 7.3 mph 13 mph 61.9% 0 in
13:44 81 °F 66.4 °F 30 in NE 6.9 mph 12 mph 61.6% 0 in
13:49 81.1 °F 66.6 °F 30 in ENE 7 mph 12.7 mph 61.3% 0 in
13:54 81.1 °F 66.7 °F 30 in ENE 7.4 mph 13 mph 61.5% 0 in
13:59 81.1 °F 66.2 °F 30 in ENE 7.1 mph 12.5 mph 60.4% 0 in
14:04 81.1 °F 65.8 °F 30 in NE 6.4 mph 15.2 mph 59.7% 0 in
14:09 81.3 °F 66.6 °F 30 in NE 6.6 mph 15 mph 61.1% 0 in
14:14 81.5 °F 66.4 °F 30 in NE 7.4 mph 15.2 mph 60.3% 0 in
14:19 81.1 °F 66.4 °F 30 in NE 7.6 mph 15.2 mph 60.8% 0 in
14:24 81.5 °F 66.4 °F 30 in NNE 8.5 mph 15 mph 60.1% 0 in
14:29 81.7 °F 66.2 °F 30 in NE 8.4 mph 13 mph 59.6% 0 in
14:34 82 °F 65.8 °F 30 in NE 8.1 mph 16.3 mph 58.1% 0 in
14:39 82 °F 65.1 °F 30 in NE 8.1 mph 16 mph 56.5% 0 in
14:44 82 °F 64.8 °F 30 in NE 8.5 mph 15 mph 55.9% 0 in
14:49 82.2 °F 65.3 °F 30 in ENE 8.3 mph 15 mph 56.3% 0 in
14:54 82.4 °F 64.9 °F 30 in NE 7.6 mph 17.3 mph 55.9% 0 in
14:59 82 °F 64.8 °F 30 in NE 7.8 mph 17 mph 56% 0 in
15:04 82 °F 64.6 °F 30 in NNE 8.5 mph 15.2 mph 55.7% 0 in
15:09 81.7 °F 64.6 °F 30 in NE 8.7 mph 17.5 mph 56.1% 0 in
15:14 81.7 °F 65.1 °F 30 in NNE 9.7 mph 17.3 mph 57.3% 0 in
15:19 81.9 °F 65.1 °F 30 in NE 9.6 mph 16 mph 56.9% 0 in
15:24 82 °F 65.1 °F 30 in NE 9.2 mph 15 mph 56.8% 0 in
15:29 82.2 °F 64.9 °F 30 in NE 8.9 mph 16.1 mph 55.9% 0 in
15:34 82 °F 64.8 °F 30 in NE 7.4 mph 16 mph 55.9% 0 in
15:39 82 °F 64.9 °F 29.9 in NE 7.5 mph 14 mph 56.4% 0 in
15:44 82 °F 64.9 °F 29.9 in NE 7.6 mph 12 mph 56.4% 0 in
15:49 82.2 °F 64.8 °F 29.9 in NE 7.4 mph 15 mph 55.6% 0 in
15:54 82.2 °F 64.6 °F 29.9 in NE 6.4 mph 15 mph 55.4% 0 in
15:59 82 °F 64.4 °F 29.9 in NE 6.6 mph 15 mph 55.3% 0 in
16:04 82 °F 64.6 °F 29.9 in NE 7.4 mph 13 mph 55.6% 0 in
16:09 82 °F 64.6 °F 29.9 in ENE 7.4 mph 13 mph 55.5% 0 in
16:14 82.2 °F 64.4 °F 29.9 in ENE 7.4 mph 13 mph 54.9% 0 in
16:19 82.6 °F 64.6 °F 29.9 in NE 7.3 mph 15 mph 54.4% 0 in
16:24 82.6 °F 64.4 °F 29.9 in NE 6.9 mph 15 mph 54% 0 in
16:29 82.6 °F 64.2 °F 29.9 in NE 7 mph 13.8 mph 53.8% 0 in
16:34 82.4 °F 64.2 °F 29.9 in NE 7.4 mph 14 mph 54% 0 in
16:39 82.4 °F 64.4 °F 29.9 in NE 7.3 mph 14 mph 54.6% 0 in
16:44 82.8 °F 64.4 °F 29.9 in NE 6.9 mph 13.5 mph 54% 0 in
16:49 82.6 °F 64.4 °F 29.9 in NE 7 mph 15.2 mph 54.2% 0 in
16:54 82 °F 64.6 °F 29.9 in NE 7.6 mph 15 mph 55.5% 0 in
16:59 82.4 °F 64.9 °F 29.9 in NE 7.5 mph 12 mph 55.7% 0 in
17:04 82.6 °F 65.3 °F 29.9 in NE 6.9 mph 14.7 mph 55.9% 0 in
17:09 82.6 °F 65.1 °F 29.9 in NE 6.8 mph 15 mph 55.7% 0 in
17:14 82.6 °F 64.8 °F 29.9 in NE 6.4 mph 16.1 mph 55.1% 0 in
17:19 82.4 °F 64.4 °F 29.9 in NE 6.5 mph 16 mph 54.6% 0 in
17:24 82.2 °F 64.2 °F 29.9 in NNE 6.9 mph 13 mph 54.6% 0 in
17:29 82.2 °F 64.4 °F 29.9 in NE 6.8 mph 10.4 mph 55% 0 in
17:34 82.2 °F 63.9 °F 29.9 in NE 6.2 mph 10.7 mph 54% 0 in
17:39 82.4 °F 63.7 °F 29.9 in ENE 6.2 mph 11 mph 53.3% 0 in
17:44 82.4 °F 63.7 °F 29.9 in NE 5.9 mph 11.8 mph 53.2% 0 in
17:49 82.2 °F 63.5 °F 29.9 in NE 6 mph 12 mph 53.1% 0 in
17:54 82 °F 63.3 °F 29.9 in NE 6.4 mph 13.8 mph 53% 0 in
17:59 82 °F 63.1 °F 29.9 in ENE 6.6 mph 14 mph 52.8% 0 in
18:04 82 °F 63.7 °F 29.9 in NE 7.6 mph 14 mph 53.9% 0 in
18:09 81.9 °F 64 °F 29.9 in NE 7.5 mph 14 mph 54.8% 0 in
18:14 81.9 °F 63.5 °F 29.9 in NE 6.9 mph 12.7 mph 54% 0 in
18:19 81.7 °F 61.7 °F 29.9 in NNE 7 mph 13 mph 50.8% 0 in
18:24 81.7 °F 62.8 °F 29.9 in NE 7.6 mph 14 mph 52.6% 0 in
18:29 81.7 °F 63.3 °F 29.9 in NE 7.7 mph 14 mph 53.8% 0 in
18:34 81.7 °F 63.1 °F 29.9 in NE 8.1 mph 13 mph 53.6% 0 in
18:39 81.7 °F 62.6 °F 29.9 in NE 7.9 mph 12 mph 52.5% 0 in
18:44 81.5 °F 63.3 °F 29.9 in NE 6.9 mph 12.3 mph 53.8% 0 in
18:49 81.3 °F 63.1 °F 29.9 in ENE 6.9 mph 13 mph 54.2% 0 in
18:54 81.3 °F 63.9 °F 29.9 in NE 6.9 mph 13 mph 55.6% 0 in
18:59 81.1 °F 63.7 °F 29.9 in NE 6.8 mph 12.3 mph 55.5% 0 in
19:04 81 °F 64.2 °F 29.9 in NE 6.4 mph 13 mph 57.2% 0 in
19:09 80.6 °F 64.4 °F 29.9 in NE 6.6 mph 12 mph 58% 0 in
19:14 80.2 °F 64.9 °F 29.9 in NE 7.4 mph 11 mph 59.6% 0 in
19:19 80.1 °F 65.1 °F 29.9 in NE 7.2 mph 10.4 mph 60.4% 0 in
19:24 79.9 °F 65.5 °F 29.9 in NE 6.4 mph 12.7 mph 61.5% 0 in
19:29 79.3 °F 65.7 °F 29.9 in NE 6.6 mph 13.8 mph 62.7% 0 in
19:34 79.2 °F 66 °F 29.9 in NE 7.6 mph 14 mph 64.1% 0 in
19:39 79 °F 66.4 °F 29.9 in NE 7.7 mph 13 mph 65.6% 0 in
19:44 78.6 °F 66.7 °F 29.9 in NE 8.1 mph 13 mph 67.2% 0 in
19:49 78.4 °F 67.1 °F 30 in NE 7.8 mph 11.5 mph 68.4% 0 in
19:54 78.3 °F 67.5 °F 30 in NE 6.4 mph 12 mph 69.7% 0 in
19:59 77.7 °F 67.6 °F 30 in NNE 6.6 mph 12 mph 70.9% 0 in
20:04 77.5 °F 67.6 °F 30 in NE 7.4 mph 12.7 mph 71.9% 0 in
20:09 77.2 °F 67.8 °F 30 in NE 7.4 mph 13.8 mph 73% 0 in
20:14 76.8 °F 67.6 °F 30 in NE 7.4 mph 14 mph 73.4% 0 in
20:19 76.6 °F 67.6 °F 30 in NE 7.5 mph 13 mph 74% 0 in
20:24 76.6 °F 67.6 °F 30 in NE 8.1 mph 12 mph 74.1% 0 in
20:29 76.5 °F 67.8 °F 30 in NE 7.6 mph 12 mph 75% 0 in
20:34 76.3 °F 67.8 °F 30 in ENE 5.9 mph 9.2 mph 75.1% 0 in
20:39 76.1 °F 68 °F 30 in NE 5.8 mph 9.2 mph 76% 0 in
20:44 75.9 °F 68 °F 30 in NE 5.2 mph 10.4 mph 76.6% 0 in
20:49 75.7 °F 68 °F 30 in NE 5.2 mph 10 mph 77.1% 0 in
20:54 75.7 °F 68.4 °F 30 in NE 5.4 mph 9.2 mph 78% 0 in
20:59 75.6 °F 68.4 °F 30 in NE 5.5 mph 9 mph 78.4% 0 in
21:04 75.4 °F 68.4 °F 30 in NE 5.9 mph 9.2 mph 79% 0 in
21:09 75.2 °F 68.5 °F 30 in NE 5.8 mph 9 mph 79.8% 0 in
21:14 75 °F 68.5 °F 30 in NE 5.2 mph 9.2 mph 80.2% 0 in
21:19 74.8 °F 68.7 °F 30 in NE 5.3 mph 9.2 mph 81% 0 in
21:24 74.8 °F 68.7 °F 30 in NE 6.2 mph 9.2 mph 81.7% 0 in
21:29 74.7 °F 68.7 °F 30 in NE 6 mph 9 mph 82% 0 in
21:34 74.7 °F 68.9 °F 30 in NE 5.4 mph 8.1 mph 82.3% 0 in
21:39 74.5 °F 69.1 °F 30 in ENE 5.2 mph 8 mph 83% 0 in
21:44 74.5 °F 68.9 °F 30 in NE 4.3 mph 7 mph 83% 0 in
21:49 74.3 °F 68.9 °F 30 in NE 4.3 mph 7 mph 83.7% 0 in
21:54 74.1 °F 69.1 °F 30 in NE 4 mph 7 mph 84% 0 in
21:59 74.1 °F 68.9 °F 30 in NE 3.8 mph 5.2 mph 84% 0 in
22:04 73.9 °F 69.1 °F 30 in NE 2.9 mph 6.4 mph 85% 0 in
22:09 73.9 °F 69.1 °F 30 in ENE 2.9 mph 7 mph 85% 0 in
22:14 73.9 °F 69.1 °F 30 in ENE 2.9 mph 7 mph 85% 0 in
22:19 73.8 °F 69.1 °F 30 in NE 2.9 mph 6.2 mph 85% 0 in
22:24 73.8 °F 69.1 °F 30 in NE 3.1 mph 6 mph 85% 0 in
22:29 73.8 °F 69.3 °F 30 in NE 3 mph 5 mph 86% 0 in
22:34 73.6 °F 69.1 °F 30 in NE 2.9 mph 5.2 mph 86% 0 in
22:39 73.6 °F 69.1 °F 30 in NE 2.9 mph 5 mph 86% 0 in
22:44 73.6 °F 69.1 °F 30 in NE 2.9 mph 5 mph 86% 0 in
22:49 73.4 °F 69.1 °F 30 in NE 2.9 mph 5.8 mph 86% 0 in
22:54 73.2 °F 69.1 °F 30 in NNE 3.1 mph 6 mph 86.4% 0 in
22:59 73.2 °F 69.1 °F 30 in NE 2.9 mph 5 mph 87% 0 in
23:04 73 °F 69.1 °F 30 in North 2.4 mph 3.6 mph 87% 0 in
23:09 73 °F 68.9 °F 30 in NNO 2.3 mph 4 mph 87% 0 in
23:14 72.9 °F 68.9 °F 30 in NNO 1.8 mph 4.3 mph 87% 0 in
23:19 72.9 °F 69.1 °F 30 in North 1.9 mph 5 mph 88% 0 in
23:24 72.9 °F 68.9 °F 30 in NNE 2 mph 4.6 mph 88% 0 in
23:29 72.7 °F 68.9 °F 30 in NE 2.1 mph 5 mph 88% 0 in
23:34 72.7 °F 68.9 °F 30 in NE 2.4 mph 5 mph 88% 0 in
23:39 72.5 °F 69.1 °F 30 in NNE 2.4 mph 5 mph 88.9% 0 in
23:44 72.5 °F 69.1 °F 30 in NNE 2.4 mph 4.6 mph 89% 0 in
23:49 72.5 °F 69.1 °F 30 in NNE 2.3 mph 5 mph 89% 0 in
23:54 72.7 °F 69.1 °F 30 in NNE 1.8 mph 3.5 mph 89% 0 in
23:59 72.5 °F 69.1 °F 30 in NNE 1.7 mph 3 mph 89% 0 in
Murcia-Puente Tocinos, España
Compliments of Weather Underground - 3 mb

La estación de MeteoMurcia.com, publica sus datos en los siguientes proyectos:

Weather Underground PWS IMURCIAP2 Meteoclimatic www.awekas.at

W3Counter
Web Analytics